createdAt,value
2023-05-16T00:02:27.326Z,3.53
2023-05-16T00:04:56.328Z,3.90
2023-05-16T00:07:30.392Z,3.40
2023-05-16T00:09:59.859Z,4.60
2023-05-16T00:12:29.588Z,4.43
2023-05-16T00:15:01.553Z,3.60
2023-05-16T00:17:31.053Z,3.73
2023-05-16T00:19:58.971Z,3.23
2023-05-16T00:22:28.196Z,4.40
2023-05-16T00:24:57.116Z,4.30
2023-05-16T00:27:29.416Z,4.90
2023-05-16T00:30:01.720Z,2.73
2023-05-16T00:32:33.876Z,3.33
2023-05-16T00:35:03.293Z,4.07
2023-05-16T00:37:32.378Z,3.50
2023-05-16T00:40:06.834Z,3.17
2023-05-16T00:42:38.455Z,3.73
2023-05-16T00:45:08.348Z,4.80
2023-05-16T00:47:39.192Z,3.50
2023-05-16T00:50:07.494Z,3.53
2023-05-16T00:52:39.404Z,4.03
2023-05-16T00:55:10.601Z,3.80
2023-05-16T00:57:41.434Z,3.83
2023-05-16T01:00:10.906Z,4.90
2023-05-16T01:02:38.339Z,3.60
2023-05-16T01:05:08.748Z,4.00
2023-05-16T01:07:38.663Z,5.23
2023-05-16T01:10:08.816Z,4.33
2023-05-16T01:12:38.654Z,5.30
2023-05-16T01:15:08.854Z,4.60
2023-05-16T01:17:42.894Z,4.40
2023-05-16T01:20:15.763Z,5.87
2023-05-16T01:22:46.263Z,4.93
2023-05-16T01:25:48.615Z,4.87
2023-05-16T01:28:19.472Z,3.80
2023-05-16T01:30:51.376Z,3.77
2023-05-16T01:33:20.529Z,3.50
2023-05-16T01:35:53.571Z,3.83
2023-05-16T01:38:30.763Z,4.47
2023-05-16T01:41:01.862Z,4.60
2023-05-16T01:43:36.270Z,5.10
2023-05-16T01:46:15.310Z,4.60
2023-05-16T01:48:54.694Z,6.07
2023-05-16T01:51:24.548Z,7.30
2023-05-16T01:53:53.570Z,3.53
2023-05-16T01:56:23.126Z,4.03
2023-05-16T01:58:55.707Z,4.30
2023-05-16T02:01:23.249Z,4.30
2023-05-16T02:03:50.162Z,4.20
2023-05-16T02:06:19.825Z,3.70
2023-05-16T02:08:49.566Z,4.30
2023-05-16T02:11:18.703Z,4.23
2023-05-16T02:13:45.600Z,5.50
2023-05-16T02:16:17.336Z,6.27
2023-05-16T02:18:45.297Z,4.10
2023-05-16T02:21:14.529Z,5.20
2023-05-16T02:23:41.767Z,4.70
2023-05-16T02:26:11.578Z,4.33
2023-05-16T02:28:38.381Z,4.90
2023-05-16T02:31:05.473Z,5.97
2023-05-16T02:33:32.347Z,6.80
2023-05-16T02:36:04.462Z,4.30
2023-05-16T02:38:33.768Z,4.93
2023-05-16T02:41:00.561Z,5.37
2023-05-16T02:43:27.308Z,5.10
2023-05-16T02:45:54.201Z,5.77
2023-05-16T02:48:25.545Z,5.50
2023-05-16T02:50:52.554Z,5.43
2023-05-16T02:53:19.409Z,4.90
2023-05-16T02:55:48.504Z,4.87
2023-05-16T02:58:21.579Z,5.60
2023-05-16T03:00:50.965Z,5.67
2023-05-16T03:03:20.165Z,5.20
2023-05-16T03:05:48.895Z,4.17
2023-05-16T03:08:18.084Z,4.97
2023-05-16T03:10:49.617Z,5.70
2023-05-16T03:13:18.687Z,5.30
2023-05-16T03:15:46.298Z,5.50
2023-05-16T03:18:13.177Z,4.67
2023-05-16T03:20:43.179Z,7.33
2023-05-16T03:23:12.462Z,6.40
2023-05-16T03:25:43.345Z,6.13
2023-05-16T03:28:15.455Z,4.90
2023-05-16T03:30:42.550Z,4.90
2023-05-16T03:33:14.280Z,5.73
2023-05-16T03:35:43.883Z,4.67
2023-05-16T03:38:13.102Z,4.83
2023-05-16T03:40:40.678Z,4.50
2023-05-16T03:43:09.848Z,5.50
2023-05-16T03:45:41.405Z,5.20
2023-05-16T03:48:13.495Z,5.60
2023-05-16T03:50:43.113Z,5.50
2023-05-16T03:53:12.388Z,5.80
2023-05-16T03:55:39.206Z,5.80
2023-05-16T03:58:08.209Z,6.00
2023-05-16T04:00:36.903Z,5.70
2023-05-16T04:03:04.558Z,5.83
2023-05-16T04:05:34.161Z,9.50
2023-05-16T04:08:01.024Z,6.20
2023-05-16T04:10:30.119Z,5.97
2023-05-16T04:12:56.947Z,5.60
2023-05-16T04:15:26.475Z,6.27
2023-05-16T04:17:53.467Z,7.43
2023-05-16T04:20:22.518Z,7.70
2023-05-16T04:22:52.107Z,7.50
2023-05-16T04:25:19.036Z,6.80
2023-05-16T04:27:45.970Z,8.40
2023-05-16T04:30:16.122Z,6.53
2023-05-16T04:32:45.584Z,5.87
2023-05-16T04:35:12.374Z,6.17
2023-05-16T04:37:44.183Z,6.97
2023-05-16T04:40:15.846Z,7.83
2023-05-16T04:42:42.638Z,8.63
2023-05-16T04:45:16.400Z,8.53
2023-05-16T04:47:48.412Z,7.17
2023-05-16T04:50:18.397Z,9.80
2023-05-16T04:52:50.468Z,9.00
2023-05-16T04:55:17.282Z,8.80
2023-05-16T04:57:47.028Z,7.00
2023-05-16T05:00:14.613Z,7.97
2023-05-16T05:02:41.789Z,7.50
2023-05-16T05:05:09.175Z,8.47
2023-05-16T05:07:38.566Z,10.90
2023-05-16T05:10:07.914Z,6.77
2023-05-16T05:12:40.661Z,6.93
2023-05-16T05:15:13.449Z,7.50
2023-05-16T05:17:40.359Z,7.13
2023-05-16T05:20:12.360Z,8.00
2023-05-16T05:22:41.484Z,7.90
2023-05-16T05:25:08.819Z,6.73
2023-05-16T05:27:37.890Z,7.80
2023-05-16T05:30:05.185Z,7.50
2023-05-16T05:32:34.299Z,7.47
2023-05-16T05:35:01.585Z,8.27
2023-05-16T05:37:31.377Z,8.93
2023-05-16T05:40:03.332Z,7.83
2023-05-16T05:42:32.397Z,7.60
2023-05-16T05:45:01.823Z,7.57
2023-05-16T05:47:33.670Z,6.37
2023-05-16T05:50:03.021Z,6.47
2023-05-16T05:52:32.480Z,6.33
2023-05-16T05:55:00.253Z,7.13
2023-05-16T05:57:29.307Z,6.77
2023-05-16T05:59:58.698Z,9.27
2023-05-16T06:02:27.995Z,7.40
2023-05-16T06:04:55.019Z,8.83
2023-05-16T06:07:24.412Z,8.97
2023-05-16T06:09:51.690Z,8.90
2023-05-16T06:12:23.348Z,7.23
2023-05-16T06:14:52.545Z,7.87
2023-05-16T06:17:21.889Z,7.70
2023-05-16T06:19:53.438Z,7.83
2023-05-16T06:22:22.850Z,11.60
2023-05-16T06:24:49.644Z,8.50
2023-05-16T06:27:16.478Z,7.70
2023-05-16T06:29:47.545Z,8.03
2023-05-16T06:32:14.310Z,7.30
2023-05-16T06:34:46.216Z,7.70
2023-05-16T06:37:17.780Z,9.50
2023-05-16T06:39:49.399Z,7.53
2023-05-16T06:42:19.482Z,9.00
2023-05-16T06:44:52.221Z,7.27
2023-05-16T06:47:21.804Z,9.17
2023-05-16T06:49:54.153Z,7.53
2023-05-16T06:52:26.380Z,7.20
2023-05-16T06:54:55.448Z,10.57
2023-05-16T06:57:22.281Z,8.33
2023-05-16T06:59:51.501Z,7.13
2023-05-16T07:02:23.388Z,7.97
2023-05-16T07:04:55.637Z,10.57
2023-05-16T07:07:26.983Z,8.27
2023-05-16T07:09:56.460Z,8.23
2023-05-16T07:12:28.773Z,7.57
2023-05-16T07:14:57.825Z,6.93
2023-05-16T07:17:27.303Z,8.97
2023-05-16T07:19:58.996Z,9.57
2023-05-16T07:22:28.335Z,7.57
2023-05-16T07:25:01.494Z,8.37
2023-05-16T07:27:32.248Z,8.53
2023-05-16T07:29:59.057Z,9.40
2023-05-16T07:32:26.141Z,7.37
2023-05-16T07:34:55.122Z,8.40
2023-05-16T07:37:24.334Z,7.00
2023-05-16T07:39:56.104Z,8.90
2023-05-16T07:42:25.306Z,6.80
2023-05-16T07:44:54.393Z,7.20
2023-05-16T07:47:21.248Z,7.40
2023-05-16T07:49:48.141Z,6.60
2023-05-16T07:52:22.461Z,7.20
2023-05-16T07:54:56.785Z,6.27
2023-05-16T07:57:31.769Z,6.50
2023-05-16T08:00:01.211Z,7.20
2023-05-16T08:02:31.496Z,7.00
2023-05-16T08:05:03.433Z,8.17
2023-05-16T08:07:30.547Z,7.83
2023-05-16T08:09:59.893Z,8.33
2023-05-16T08:12:31.254Z,7.37
2023-05-16T08:14:58.103Z,9.10
2023-05-16T08:17:29.724Z,8.63
2023-05-16T08:19:59.578Z,8.93
2023-05-16T08:22:26.534Z,9.90
2023-05-16T08:24:53.420Z,6.17
2023-05-16T08:27:22.869Z,8.30
2023-05-16T08:29:49.765Z,6.87
2023-05-16T08:32:19.056Z,7.73
2023-05-16T08:34:46.279Z,6.70
2023-05-16T08:37:18.151Z,8.60
2023-05-16T08:39:49.956Z,9.40
2023-05-16T08:42:21.638Z,8.73
2023-05-16T08:44:55.708Z,9.33
2023-05-16T08:47:33.339Z,8.23
2023-05-16T08:50:03.171Z,8.77
2023-05-16T08:52:34.381Z,8.27
2023-05-16T08:55:11.053Z,9.50
2023-05-16T08:57:40.934Z,7.80
2023-05-16T09:00:14.149Z,8.67
2023-05-16T09:02:49.404Z,9.57
2023-05-16T09:05:22.692Z,8.07
2023-05-16T09:07:54.146Z,6.70
2023-05-16T09:10:25.653Z,7.37
2023-05-16T09:12:54.985Z,12.00
2023-05-16T09:15:21.944Z,8.73
2023-05-16T09:17:51.676Z,9.47
2023-05-16T09:20:21.889Z,8.60
2023-05-16T09:23:00.526Z,10.80
2023-05-16T09:25:32.457Z,9.73
2023-05-16T09:28:03.118Z,10.00
2023-05-16T09:30:35.619Z,10.40
2023-05-16T09:33:02.999Z,10.10
2023-05-16T09:35:44.792Z,10.83
2023-05-16T09:38:18.114Z,9.87
2023-05-16T09:40:46.152Z,10.87
2023-05-16T09:43:17.635Z,10.50
2023-05-16T09:45:51.863Z,10.63
2023-05-16T09:48:24.042Z,9.53
2023-05-16T09:50:54.595Z,10.23
2023-05-16T09:53:31.090Z,11.00
2023-05-16T09:56:14.092Z,8.23
2023-05-16T09:58:45.467Z,10.30
2023-05-16T10:01:18.109Z,10.67
2023-05-16T10:03:49.568Z,10.00
2023-05-16T10:06:19.964Z,9.20
2023-05-16T10:08:51.940Z,9.10
2023-05-16T10:11:21.859Z,10.47
2023-05-16T10:13:53.449Z,9.70
2023-05-16T10:16:26.930Z,10.67
2023-05-16T10:18:56.606Z,9.50
2023-05-16T10:21:25.564Z,9.50
2023-05-16T10:24:05.771Z,8.17
2023-05-16T10:26:39.885Z,10.57
2023-05-16T10:29:07.708Z,10.10
2023-05-16T10:31:35.366Z,11.80
2023-05-16T10:34:04.579Z,10.87
2023-05-16T10:36:34.198Z,9.30
2023-05-16T10:39:01.820Z,9.60
2023-05-16T10:41:34.921Z,9.30
2023-05-16T10:44:14.017Z,9.07
2023-05-16T10:46:46.047Z,11.27
2023-05-16T10:49:30.941Z,8.73
2023-05-16T10:52:13.878Z,9.43
2023-05-16T10:54:46.985Z,9.80
2023-05-16T10:57:25.184Z,8.43
2023-05-16T11:00:02.032Z,9.23
2023-05-16T11:02:34.827Z,9.60
2023-05-16T11:05:15.676Z,10.20
2023-05-16T11:08:04.581Z,8.80
2023-05-16T11:10:36.328Z,10.27
2023-05-16T11:13:08.946Z,11.83
2023-05-16T11:15:42.917Z,10.80
2023-05-16T11:18:19.213Z,11.13
2023-05-16T11:20:52.036Z,12.03
2023-05-16T11:23:25.921Z,10.83
2023-05-16T11:26:01.143Z,11.30
2023-05-16T11:28:30.409Z,11.17
2023-05-16T11:31:05.545Z,12.87
2023-05-16T11:33:37.302Z,13.03
2023-05-16T11:38:46.095Z,13.37
2023-05-16T11:41:15.647Z,12.73
2023-05-16T11:43:46.066Z,13.20
2023-05-16T11:46:14.197Z,12.90
2023-05-16T11:48:45.531Z,13.67
2023-05-16T11:51:19.097Z,10.93
2023-05-16T11:53:52.378Z,13.07
2023-05-16T11:56:23.732Z,13.20
2023-05-16T11:58:56.370Z,11.93
2023-05-16T12:01:26.792Z,16.27
2023-05-16T12:03:58.512Z,14.83
2023-05-16T12:06:31.589Z,16.40
2023-05-16T12:08:58.554Z,14.30
2023-05-16T12:11:25.463Z,14.73
2023-05-16T12:13:55.012Z,16.23
2023-05-16T12:16:24.446Z,14.30
2023-05-16T12:18:53.670Z,13.30
2023-05-16T12:21:23.142Z,14.57
2023-05-16T12:23:58.719Z,12.77
2023-05-16T12:26:32.372Z,15.53
2023-05-16T12:29:05.509Z,14.67
2023-05-16T12:31:44.326Z,13.73
2023-05-16T12:34:22.132Z,15.53
2023-05-16T12:36:55.269Z,18.33
2023-05-16T12:39:29.275Z,15.33
2023-05-16T12:42:05.059Z,16.33
2023-05-16T12:44:37.526Z,16.73
2023-05-16T12:47:15.036Z,12.87
2023-05-16T12:49:51.451Z,13.83
2023-05-16T12:52:21.739Z,15.53
2023-05-16T12:54:51.180Z,14.50
2023-05-16T12:57:24.734Z,15.10
2023-05-16T12:59:54.003Z,18.40
2023-05-16T13:02:30.709Z,15.87
2023-05-16T13:05:02.092Z,16.60
2023-05-16T13:07:28.921Z,15.63
2023-05-16T13:09:56.176Z,17.50
2023-05-16T13:12:28.810Z,17.23
2023-05-16T13:14:57.849Z,15.00
2023-05-16T13:17:27.272Z,18.83
2023-05-16T13:19:54.310Z,19.23
2023-05-16T13:22:28.561Z,15.80
2023-05-16T13:24:59.847Z,17.07
2023-05-16T13:27:34.406Z,19.13
2023-05-16T13:30:04.590Z,13.20
2023-05-16T13:32:36.296Z,9.53
2023-05-16T13:35:06.234Z,8.50
2023-05-16T13:37:41.654Z,7.30
2023-05-16T13:40:13.479Z,6.77
2023-05-16T13:42:42.925Z,6.13
2023-05-16T13:45:13.029Z,6.03
2023-05-16T13:47:46.235Z,7.70
2023-05-16T13:50:15.075Z,9.40
2023-05-16T13:52:47.715Z,4.60
2023-05-16T13:55:14.870Z,6.10
2023-05-16T13:57:46.392Z,7.93
2023-05-16T14:02:45.569Z,4.60
2023-05-16T14:05:17.083Z,6.17
2023-05-16T14:07:48.519Z,5.57
2023-05-16T14:10:25.304Z,6.07
2023-05-16T14:12:57.337Z,4.70
2023-05-16T14:15:27.217Z,6.50
2023-05-16T14:17:54.417Z,6.90
2023-05-16T14:20:23.738Z,5.60
2023-05-16T14:22:50.616Z,5.97
2023-05-16T14:25:17.691Z,7.37
2023-05-16T14:27:51.241Z,6.57
2023-05-16T14:30:25.624Z,5.83
2023-05-16T14:32:52.852Z,6.93
2023-05-16T14:35:22.210Z,7.93
2023-05-16T14:37:49.057Z,6.63
2023-05-16T14:40:18.190Z,6.60
2023-05-16T14:42:47.311Z,7.00
2023-05-16T14:45:18.947Z,8.23
2023-05-16T14:47:50.605Z,8.77
2023-05-16T14:50:19.642Z,7.30
2023-05-16T14:52:46.685Z,7.50
2023-05-16T14:55:16.582Z,7.77
2023-05-16T14:57:50.462Z,7.10
2023-05-16T15:00:27.086Z,6.90
2023-05-16T15:02:58.940Z,8.93
2023-05-16T15:05:31.216Z,8.00
2023-05-16T15:08:03.357Z,6.67
2023-05-16T15:10:37.067Z,8.23
2023-05-16T15:13:04.542Z,7.00
2023-05-16T15:15:34.061Z,8.10
2023-05-16T15:18:03.170Z,8.07
2023-05-16T15:20:34.630Z,8.00
2023-05-16T15:23:02.595Z,6.60
2023-05-16T15:25:30.114Z,5.90
2023-05-16T15:28:00.188Z,9.80
2023-05-16T15:30:29.747Z,8.07
2023-05-16T15:32:59.636Z,6.83
2023-05-16T15:35:31.619Z,7.17
2023-05-16T15:37:59.930Z,7.90
2023-05-16T15:40:31.409Z,7.37
2023-05-16T15:42:58.324Z,6.67
2023-05-16T15:45:29.870Z,6.80
2023-05-16T15:47:59.268Z,7.20
2023-05-16T15:50:28.888Z,6.30
2023-05-16T15:53:00.348Z,5.87
2023-05-16T15:55:29.950Z,6.73
2023-05-16T15:58:05.750Z,6.60
2023-05-16T16:00:34.956Z,6.30
2023-05-16T16:03:06.890Z,7.57
2023-05-16T16:05:36.337Z,7.97
2023-05-16T16:08:06.658Z,7.70
2023-05-16T16:10:35.800Z,7.60
2023-05-16T16:13:05.797Z,8.03
2023-05-16T16:15:36.175Z,7.13
2023-05-16T16:18:03.337Z,7.20
2023-05-16T16:20:35.914Z,7.60
2023-05-16T16:23:07.337Z,6.70
2023-05-16T16:25:39.010Z,7.60
2023-05-16T16:28:10.464Z,8.20
2023-05-16T16:30:44.798Z,8.83
2023-05-16T16:33:11.740Z,8.50
2023-05-16T16:35:45.576Z,7.93
2023-05-16T16:38:14.904Z,8.17
2023-05-16T16:40:46.999Z,7.77
2023-05-16T16:43:18.838Z,7.90
2023-05-16T16:45:45.707Z,7.10
2023-05-16T16:48:12.571Z,8.30
2023-05-16T16:50:42.305Z,8.03
2023-05-16T16:53:13.917Z,7.83
2023-05-16T16:55:43.473Z,7.67
2023-05-16T16:58:14.668Z,9.50
2023-05-16T17:00:41.573Z,9.23
2023-05-16T17:03:11.856Z,9.97
2023-05-16T17:05:42.356Z,8.67
2023-05-16T17:08:12.352Z,9.30
2023-05-16T17:10:41.907Z,9.37
2023-05-16T17:13:14.996Z,10.07
2023-05-16T17:15:44.279Z,9.87
2023-05-16T17:18:16.200Z,9.77
2023-05-16T17:20:47.790Z,9.40
2023-05-16T17:23:16.861Z,11.30
2023-05-16T17:25:46.166Z,10.20
2023-05-16T17:28:15.331Z,9.87
2023-05-16T17:30:44.524Z,10.40
2023-05-16T17:33:11.390Z,10.30
2023-05-16T17:35:41.289Z,10.77
2023-05-16T17:38:10.441Z,12.47
2023-05-16T17:40:37.362Z,13.90
2023-05-16T17:43:04.219Z,14.00
2023-05-16T17:45:31.358Z,15.93
2023-05-16T17:48:00.808Z,11.43
2023-05-16T17:50:34.103Z,12.47
2023-05-16T17:53:03.283Z,10.40
2023-05-16T17:55:30.337Z,9.37
2023-05-16T17:57:59.792Z,11.43
2023-05-16T18:00:32.909Z,10.67
2023-05-16T18:03:05.169Z,13.10
2023-05-16T18:05:34.526Z,11.47
2023-05-16T18:08:01.451Z,10.53
2023-05-16T18:10:40.057Z,9.30
2023-05-16T18:13:10.584Z,10.43
2023-05-16T18:15:39.659Z,10.60
2023-05-16T18:18:06.868Z,9.80
2023-05-16T18:20:38.243Z,10.93
2023-05-16T18:23:09.834Z,9.67
2023-05-16T18:25:39.127Z,11.30
2023-05-16T18:28:08.234Z,11.33
2023-05-16T18:30:40.211Z,9.97
2023-05-16T18:33:09.526Z,9.47
2023-05-16T18:35:38.818Z,10.67
2023-05-16T18:38:20.307Z,9.63
2023-05-16T18:40:53.995Z,10.30
2023-05-16T18:43:28.801Z,12.47
2023-05-16T18:45:58.619Z,10.47
2023-05-16T18:48:27.754Z,9.27
2023-05-16T18:50:59.541Z,9.67
2023-05-16T18:53:26.435Z,9.27
2023-05-16T18:55:56.183Z,10.50
2023-05-16T18:58:23.102Z,8.97
2023-05-16T19:00:54.698Z,11.07
2023-05-16T19:03:26.486Z,10.40
2023-05-16T19:05:53.416Z,9.60
2023-05-16T19:08:25.585Z,11.20
2023-05-16T19:10:58.996Z,8.30
2023-05-16T19:13:28.011Z,8.10
2023-05-16T19:15:54.898Z,6.83
2023-05-16T19:18:24.290Z,7.30
2023-05-16T19:20:54.057Z,7.67
2023-05-16T19:23:21.430Z,7.17
2023-05-16T19:25:52.933Z,7.00
2023-05-16T19:28:24.922Z,6.20
2023-05-16T19:30:54.041Z,7.40
2023-05-16T19:33:21.721Z,7.47
2023-05-16T19:35:52.974Z,8.17
2023-05-16T19:38:26.007Z,6.27
2023-05-16T19:40:55.316Z,8.47
2023-05-16T19:43:22.191Z,8.60
2023-05-16T19:45:53.832Z,7.50
2023-05-16T19:48:23.154Z,7.23
2023-05-16T19:50:50.018Z,7.80
2023-05-16T19:53:19.301Z,7.67
2023-05-16T19:55:49.659Z,6.70
2023-05-16T19:58:18.581Z,10.13
2023-05-16T20:00:52.735Z,6.33
2023-05-16T20:03:22.013Z,9.53
2023-05-16T20:05:51.429Z,7.20
2023-05-16T20:08:22.821Z,6.30
2023-05-16T20:10:54.656Z,7.60
2023-05-16T20:13:30.570Z,5.70
2023-05-16T20:15:59.744Z,6.37
2023-05-16T20:18:28.956Z,5.67
2023-05-16T20:20:58.762Z,5.30
2023-05-16T20:23:30.333Z,5.80
2023-05-16T20:25:59.756Z,11.23
2023-05-16T20:28:26.580Z,6.10
2023-05-16T20:30:53.429Z,4.63
2023-05-16T20:33:20.539Z,5.37
2023-05-16T20:35:49.702Z,5.13
2023-05-16T20:38:21.571Z,5.80
2023-05-16T20:40:48.459Z,6.03
2023-05-16T20:43:19.551Z,4.80
2023-05-16T20:45:46.378Z,6.00
2023-05-16T20:48:14.339Z,5.60
2023-05-16T20:50:43.449Z,4.93
2023-05-16T20:53:12.683Z,5.60
2023-05-16T20:55:39.506Z,5.67
2023-05-16T20:58:08.832Z,6.27
2023-05-16T21:00:35.889Z,5.97
2023-05-16T21:03:07.777Z,6.47
2023-05-16T21:05:36.603Z,5.10
2023-05-16T21:08:03.693Z,4.63
2023-05-16T21:10:32.766Z,4.60
2023-05-16T21:12:59.785Z,5.53
2023-05-16T21:15:29.209Z,4.60
2023-05-16T21:17:56.303Z,5.10
2023-05-16T21:20:25.307Z,4.17
2023-05-16T21:23:02.298Z,4.17
2023-05-16T21:25:32.181Z,4.03
2023-05-16T21:28:01.807Z,5.10
2023-05-16T21:30:31.160Z,3.47
2023-05-16T21:33:03.136Z,3.17
2023-05-16T21:35:39.431Z,4.37
2023-05-16T21:38:06.430Z,4.10
2023-05-16T21:40:33.372Z,3.70
2023-05-16T21:43:00.289Z,3.73
2023-05-16T21:45:31.932Z,7.20
2023-05-16T21:48:06.467Z,3.70
2023-05-16T21:50:38.151Z,3.50
2023-05-16T21:53:07.451Z,4.00
2023-05-16T21:55:34.264Z,5.40
2023-05-16T21:58:07.809Z,2.90
2023-05-16T22:00:37.091Z,3.77
2023-05-16T22:03:06.486Z,5.30
2023-05-16T22:05:36.564Z,3.90
2023-05-16T22:08:08.776Z,5.23
2023-05-16T22:10:41.087Z,4.37
2023-05-16T22:13:11.069Z,3.40
2023-05-16T22:15:38.567Z,3.10
2023-05-16T22:18:08.826Z,1.97
2023-05-16T22:20:37.995Z,3.17
2023-05-16T22:23:04.895Z,2.60
2023-05-16T22:25:31.799Z,5.10
2023-05-16T22:28:00.862Z,2.63
2023-05-16T22:30:30.247Z,2.33
2023-05-16T22:33:04.747Z,4.40
2023-05-16T22:35:33.974Z,3.67
2023-05-16T22:38:05.612Z,4.17
2023-05-16T22:40:34.940Z,3.00
2023-05-16T22:43:04.385Z,4.07
2023-05-16T22:45:34.162Z,3.33
2023-05-16T22:48:03.818Z,2.50
2023-05-16T22:50:32.984Z,4.63
2023-05-16T22:53:07.112Z,2.17
2023-05-16T22:55:39.071Z,3.13
2023-05-16T22:58:08.163Z,3.67
2023-05-16T23:00:35.144Z,2.93
2023-05-16T23:03:02.034Z,3.07
2023-05-16T23:05:33.761Z,8.60
2023-05-16T23:08:05.461Z,2.07
2023-05-16T23:10:34.592Z,3.60
2023-05-16T23:13:06.123Z,5.27
2023-05-16T23:15:37.706Z,4.87
2023-05-16T23:18:09.525Z,6.33
2023-05-16T23:20:36.400Z,2.80
2023-05-16T23:23:07.726Z,3.90
2023-05-16T23:25:41.978Z,2.03
2023-05-16T23:28:11.262Z,3.70
2023-05-16T23:30:38.174Z,4.43
2023-05-16T23:33:09.507Z,3.73
2023-05-16T23:35:38.644Z,3.20
2023-05-16T23:38:12.812Z,1.80
2023-05-16T23:40:39.604Z,2.93
2023-05-16T23:43:11.239Z,2.40
2023-05-16T23:45:43.016Z,2.43
2023-05-16T23:48:12.501Z,7.03
2023-05-16T23:50:41.890Z,1.50
2023-05-16T23:53:11.801Z,3.90
2023-05-16T23:55:43.407Z,5.63
2023-05-16T23:58:15.034Z,3.60
